createdAt,value
2018-01-03T09:14:29.424Z,14.20
2018-01-03T10:20:16.770Z,14.07
2018-01-03T10:22:44.747Z,10.63
2018-01-03T10:25:12.852Z,13.60
2018-01-03T10:27:40.112Z,15.50
2018-01-03T10:30:08.503Z,19.30
2018-01-03T10:32:35.942Z,13.43
2018-01-03T10:35:03.432Z,16.13
2018-01-03T10:37:30.516Z,15.57
2018-01-03T10:39:58.020Z,14.87
2018-01-03T10:42:25.274Z,15.33
2018-01-03T10:44:52.377Z,6.33
2018-01-03T10:47:19.466Z,10.47
2018-01-03T10:49:46.858Z,14.03
2018-01-03T10:52:14.162Z,10.43
2018-01-03T10:54:42.068Z,13.83
2018-01-03T10:57:09.099Z,11.23
2018-01-03T10:59:36.118Z,29.10
2018-01-03T11:02:03.247Z,12.13
2018-01-03T11:04:30.248Z,12.40
2018-01-03T11:06:57.216Z,10.47
2018-01-03T11:09:24.094Z,20.50
2018-01-03T11:11:52.060Z,10.87
2018-01-03T11:14:20.828Z,14.40
2018-01-03T11:16:49.537Z,14.17
2018-01-03T11:19:16.439Z,12.80
2018-01-03T11:21:43.270Z,14.10
2018-01-03T11:24:10.086Z,14.53
2018-01-03T11:26:37.699Z,9.20
2018-01-03T11:29:05.482Z,19.40
2018-01-03T11:31:32.314Z,11.50
2018-01-03T11:33:59.724Z,8.40
2018-01-03T11:36:26.544Z,11.13
2018-01-03T11:38:54.715Z,15.13
2018-01-03T11:41:24.111Z,8.77
2018-01-03T11:43:50.987Z,8.60
2018-01-03T11:46:17.853Z,12.33
2018-01-03T11:48:46.891Z,22.70
2018-01-03T11:51:13.742Z,16.58
2018-01-03T11:53:40.631Z,10.93
2018-01-03T11:56:07.521Z,10.43
2018-01-03T11:58:34.400Z,10.43
2018-01-03T12:01:01.284Z,12.82
2018-01-03T12:03:28.203Z,14.00
2018-01-03T12:05:55.091Z,13.62
2018-01-03T12:08:21.950Z,6.67
2018-01-03T12:10:49.485Z,10.90
2018-01-03T12:13:16.331Z,8.38
2018-01-03T12:15:43.188Z,13.00
2018-01-03T12:18:10.076Z,6.13
2018-01-03T12:20:36.992Z,13.57
2018-01-03T12:23:03.908Z,8.60
2018-01-03T12:25:34.731Z,7.53
2018-01-03T12:28:05.393Z,12.17
2018-01-03T12:30:32.946Z,14.27
2018-01-03T12:32:59.852Z,11.30
2018-01-03T12:35:26.691Z,8.90
2018-01-03T12:37:53.530Z,5.63
2018-01-03T12:40:20.368Z,11.50
2018-01-03T12:42:47.902Z,10.90
2018-01-03T12:45:15.761Z,9.65
2018-01-03T12:47:42.587Z,17.48
2018-01-03T12:50:10.152Z,7.93
2018-01-03T12:52:37.531Z,17.30
2018-01-03T12:55:04.433Z,14.48
2018-01-03T12:57:32.211Z,17.70
2018-01-03T12:59:59.102Z,13.97
2018-01-03T13:02:26.768Z,24.23
2018-01-03T13:04:54.640Z,8.83
2018-01-03T13:07:21.476Z,5.40
2018-01-03T13:09:48.952Z,9.48
2018-01-03T13:12:15.783Z,12.47
2018-01-03T13:14:42.621Z,10.83
2018-01-03T13:17:09.476Z,15.33
2018-01-03T13:19:36.344Z,11.20
2018-01-03T13:22:03.200Z,14.33
2018-01-03T13:24:30.021Z,10.93
2018-01-03T13:27:00.250Z,12.95
2018-01-03T13:29:27.096Z,14.25
2018-01-03T13:31:53.931Z,8.37
2018-01-03T13:34:20.737Z,13.63
2018-01-03T13:36:47.549Z,13.57
2018-01-03T13:39:15.143Z,14.03
2018-01-03T13:41:41.987Z,11.40
2018-01-03T13:44:08.819Z,15.23
2018-01-03T13:46:37.424Z,14.37
2018-01-03T13:49:05.260Z,16.37
2018-01-03T13:51:32.072Z,9.10
2018-01-03T13:54:00.562Z,10.83
2018-01-03T13:56:28.142Z,11.93
2018-01-03T13:58:55.905Z,8.83
2018-01-03T14:01:22.705Z,13.80
2018-01-03T14:03:49.684Z,20.48
2018-01-03T14:06:16.566Z,10.57
2018-01-03T14:08:43.433Z,24.07
2018-01-03T14:11:10.315Z,14.17
2018-01-03T14:13:37.907Z,11.97
2018-01-03T14:16:04.925Z,13.23
2018-01-03T14:18:32.505Z,11.90
2018-01-03T14:21:00.167Z,10.10
2018-01-03T14:23:26.959Z,11.47
2018-01-03T14:25:53.896Z,8.13
2018-01-03T14:28:20.731Z,13.20
2018-01-03T14:30:47.554Z,7.77
2018-01-03T14:33:14.407Z,8.83
2018-01-03T14:35:41.617Z,10.50
2018-01-03T14:38:08.551Z,11.00
2018-01-03T14:40:35.409Z,16.20
2018-01-03T14:43:02.343Z,8.97
2018-01-03T14:45:29.968Z,10.10
2018-01-03T14:47:56.946Z,18.67
2018-01-03T14:50:24.575Z,17.50
2018-01-03T14:52:51.407Z,12.90
2018-01-03T14:55:19.659Z,11.63
2018-01-03T14:57:47.024Z,18.73
2018-01-03T15:00:14.030Z,15.57
2018-01-03T15:02:41.681Z,13.40
2018-01-03T15:05:09.271Z,16.47
2018-01-03T15:07:36.559Z,13.83
2018-01-03T15:10:03.471Z,15.53
2018-01-03T15:12:31.128Z,13.40
2018-01-03T15:14:58.008Z,24.00
2018-01-03T15:17:24.851Z,13.33
2018-01-03T15:19:52.133Z,10.03
2018-01-03T15:22:18.971Z,11.43
2018-01-03T15:27:18.335Z,6.80
2018-01-03T15:29:45.177Z,9.93
2018-01-03T15:32:12.043Z,12.27
2018-01-03T15:34:40.281Z,18.63
2018-01-03T15:37:08.403Z,7.33
2018-01-03T15:39:35.298Z,12.03
2018-01-03T15:42:02.100Z,10.73
2018-01-03T15:44:28.951Z,12.60
2018-01-03T15:46:56.574Z,15.73
2018-01-03T15:49:23.424Z,12.60
2018-01-03T15:51:51.445Z,11.60
2018-01-03T15:54:18.323Z,19.23
2018-01-03T15:56:45.150Z,23.27
2018-01-03T15:59:11.991Z,13.40
2018-01-03T16:01:38.813Z,12.80
2018-01-03T16:04:05.651Z,11.80
2018-01-03T16:06:32.743Z,15.15
2018-01-03T16:09:00.312Z,16.00
2018-01-03T16:11:27.751Z,20.63
2018-01-03T16:16:54.876Z,10.87
2018-01-03T16:19:22.158Z,15.70
2018-01-03T16:21:50.255Z,15.77
2018-01-03T16:24:17.181Z,20.90
2018-01-03T16:26:47.378Z,10.27
2018-01-03T16:32:01.911Z,21.77
2018-01-03T16:34:48.005Z,13.40
2018-01-03T16:40:06.457Z,14.43
2018-01-03T16:48:00.310Z,14.33
2018-01-03T16:50:35.224Z,17.50
2018-01-03T16:53:02.318Z,21.83
2018-01-03T16:55:29.888Z,10.27
2018-01-03T16:57:58.388Z,13.43
2018-01-03T17:00:25.505Z,17.83
2018-01-03T17:02:56.399Z,19.90
2018-01-03T17:05:23.544Z,12.03
2018-01-03T17:07:50.571Z,19.70
2018-01-03T17:10:17.703Z,18.97
2018-01-03T17:12:52.916Z,18.30
2018-01-03T17:15:32.021Z,19.30
2018-01-03T17:18:00.582Z,15.37
2018-01-03T17:20:27.989Z,22.67
2018-01-03T17:22:54.940Z,10.90
2018-01-03T17:25:21.790Z,10.13
2018-01-03T17:27:49.121Z,11.50
2018-01-03T17:30:16.423Z,19.47
2018-01-03T17:32:43.270Z,9.10
2018-01-03T17:35:15.822Z,16.20
2018-01-03T17:37:42.819Z,10.03
2018-01-03T17:40:10.232Z,10.97
2018-01-03T17:42:43.716Z,8.43
2018-01-03T17:45:11.837Z,10.40
2018-01-03T17:47:38.905Z,11.07
2018-01-03T18:17:56.937Z,15.87
2018-01-03T18:20:25.175Z,16.37
2018-01-03T18:22:55.086Z,19.67
2018-01-03T18:25:22.515Z,17.27
2018-01-03T18:27:50.866Z,19.87
2018-01-03T18:30:17.935Z,13.07
2018-01-03T18:32:46.657Z,17.50
2018-01-03T18:35:15.429Z,29.43
2018-01-03T18:37:44.012Z,20.33
2018-01-03T18:40:13.606Z,15.50
2018-01-03T18:42:42.219Z,14.27
2018-01-03T18:45:10.736Z,15.23
2018-01-03T18:47:43.856Z,11.50
2018-01-03T19:11:13.050Z,4.40
2018-01-03T19:13:42.259Z,12.00
2018-01-03T19:16:11.378Z,8.50
2018-01-03T19:18:40.625Z,7.13
2018-01-03T19:21:09.686Z,9.03
2018-01-03T19:23:38.914Z,12.20
2018-01-03T19:26:08.971Z,6.70
2018-01-03T19:28:37.910Z,18.30
2018-01-03T19:31:06.934Z,12.07
2018-01-03T19:33:36.740Z,11.07
2018-01-03T19:36:06.569Z,15.53
2018-01-03T19:38:36.571Z,7.50
2018-01-03T19:41:05.569Z,14.32
2018-01-03T19:43:36.065Z,6.53
2018-01-03T19:46:05.309Z,13.20
2018-01-03T19:48:34.250Z,14.87
2018-01-03T19:51:04.266Z,11.53
2018-01-03T19:53:33.579Z,14.57
2018-01-03T19:56:03.578Z,20.17
2018-01-03T19:58:33.301Z,17.40
2018-01-03T20:01:02.441Z,22.13
2018-01-03T20:03:31.736Z,20.53
2018-01-03T20:06:01.172Z,17.87
2018-01-03T20:08:30.289Z,15.80
2018-01-03T20:10:59.919Z,17.63
2018-01-03T20:13:28.948Z,16.37
2018-01-03T20:15:58.586Z,13.30
2018-01-03T20:18:28.250Z,13.40
2018-01-03T20:20:57.561Z,16.73
2018-01-03T20:23:26.640Z,10.70
2018-01-03T20:25:55.768Z,13.27
2018-01-03T20:28:24.301Z,14.73
2018-01-03T20:30:53.285Z,12.50
2018-01-03T20:33:22.185Z,8.67
2018-01-03T20:35:51.706Z,17.77
2018-01-03T20:38:22.516Z,19.73
2018-01-03T20:40:51.494Z,10.47
2018-01-03T20:43:22.591Z,23.20
2018-01-03T20:45:52.581Z,16.23
2018-01-03T20:48:22.620Z,19.07
2018-01-03T20:50:53.517Z,22.90
2018-01-03T20:53:22.484Z,15.30
2018-01-03T20:55:52.385Z,15.97
2018-01-03T20:58:23.373Z,14.93
2018-01-03T21:00:52.702Z,25.97
2018-01-03T21:03:22.577Z,20.40
2018-01-03T21:05:51.452Z,21.27
2018-01-03T21:08:20.451Z,25.10
2018-01-03T21:10:51.247Z,19.57
2018-01-03T21:13:20.337Z,19.53
2018-01-03T21:15:49.802Z,21.53
2018-01-03T21:18:17.998Z,30.13
2018-01-03T21:20:52.645Z,23.63
2018-01-03T21:23:21.648Z,29.20
2018-01-03T21:25:51.768Z,30.23
2018-01-03T21:28:21.683Z,20.23
2018-01-03T21:30:50.511Z,28.53
2018-01-03T21:33:19.133Z,22.07
2018-01-03T21:35:48.504Z,25.80
2018-01-03T21:38:18.160Z,31.13
2018-01-03T21:40:47.722Z,20.97
2018-01-03T21:43:16.171Z,23.07
2018-01-03T21:45:45.059Z,20.30
2018-01-03T21:48:14.051Z,24.10
2018-01-03T21:50:41.176Z,23.60
2018-01-03T21:53:08.084Z,23.43
2018-01-03T21:55:35.744Z,19.93
2018-01-03T21:58:02.837Z,14.20
2018-01-03T22:00:30.498Z,24.30
2018-01-03T22:02:57.498Z,19.50
2018-01-03T22:05:24.369Z,24.73
2018-01-03T22:07:51.369Z,18.87
2018-01-03T22:10:18.244Z,22.50
2018-01-03T22:12:45.215Z,22.27
2018-01-03T22:15:12.965Z,19.70
2018-01-03T22:17:39.860Z,26.73
2018-01-03T22:20:07.528Z,24.30
2018-01-03T22:22:34.608Z,28.63
2018-01-03T22:25:01.443Z,19.73
2018-01-03T22:27:28.321Z,24.77
2018-01-03T22:29:55.177Z,27.27
2018-01-03T22:32:22.012Z,29.83
2018-01-03T22:34:49.004Z,25.30
2018-01-03T22:37:15.845Z,19.90
2018-01-03T22:39:42.724Z,29.50
2018-01-03T22:42:09.607Z,20.73
2018-01-03T22:44:37.259Z,27.80
2018-01-03T22:47:04.133Z,27.13
2018-01-03T22:49:31.701Z,26.85
2018-01-03T22:51:58.572Z,19.73
2018-01-03T22:54:26.019Z,28.10
2018-01-03T22:56:52.866Z,24.93
2018-01-03T22:59:19.785Z,22.63
2018-01-03T23:01:47.436Z,21.17
2018-01-03T23:04:14.375Z,32.40
2018-01-03T23:06:41.258Z,24.77
2018-01-03T23:09:08.139Z,30.50
2018-01-03T23:11:34.981Z,31.00
2018-01-03T23:14:01.944Z,33.67
2018-01-03T23:16:28.870Z,26.73
2018-01-03T23:18:55.853Z,21.37
2018-01-03T23:21:22.852Z,27.63
2018-01-03T23:23:49.815Z,16.50
2018-01-03T23:26:16.754Z,25.07
2018-01-03T23:28:43.722Z,27.17
2018-01-03T23:31:10.700Z,23.17
2018-01-03T23:33:37.819Z,29.33
2018-01-03T23:36:04.868Z,23.60
2018-01-03T23:38:31.871Z,27.50
2018-01-03T23:40:58.761Z,33.60
2018-01-03T23:43:25.635Z,22.33
2018-01-03T23:45:52.558Z,20.33
2018-01-03T23:48:19.498Z,29.17
2018-01-03T23:50:46.538Z,25.23
2018-01-03T23:53:14.150Z,36.57
2018-01-03T23:55:41.090Z,23.37
2018-01-03T23:58:07.982Z,35.30
